Time;durP1;ratioP1;P1;durP2;ratioP2;P2;SDS_P1;SDS_P2;PMS_P1;PMS_P2;Temp;Humidity;BMP_temperature;BMP_pressure;BME280_temperature;BME280_humidity;BME280_pressure;Samples;Min_cycle;Max_cycle;Signal;HPM_P1;HPM_P2
2020/12/12 00:00:26;;;;;;;16.00;8.43;;;4.80;99.90;;;;;;5094143;28;20028;-76
2020/12/12 00:02:52;;;;;;;17.63;7.93;;;4.70;99.90;;;;;;5094199;28;20028;-77
2020/12/12 00:05:17;;;;;;;19.40;8.68;;;4.70;99.90;;;;;;5093204;28;20496;-76
2020/12/12 00:07:43;;;;;;;19.38;8.98;;;4.80;99.90;;;;;;5093987;28;20020;-77
2020/12/12 00:10:09;;;;;;;17.60;8.18;;;4.70;99.90;;;;;;5092377;28;20070;-77
2020/12/12 00:12:35;;;;;;;17.63;8.73;;;4.80;99.90;;;;;;5092757;28;20031;-77
2020/12/12 00:15:02;;;;;;;15.10;8.20;;;4.80;99.90;;;;;;5094223;28;20047;-77
2020/12/12 00:17:28;;;;;;;19.35;8.93;;;4.80;99.90;;;;;;5092347;28;20052;-77
2020/12/12 00:19:53;;;;;;;17.30;8.68;;;4.80;99.90;;;;;;5093682;28;20055;-77
2020/12/12 00:22:19;;;;;;;18.00;8.13;;;4.80;99.90;;;;;;5092383;28;20020;-78
2020/12/12 00:24:44;;;;;;;17.75;8.77;;;4.90;99.90;;;;;;5094143;28;20081;-78
2020/12/12 00:27:10;;;;;;;20.13;9.43;;;4.80;99.90;;;;;;5092163;28;20435;-78
2020/12/12 00:29:35;;;;;;;18.77;9.30;;;4.90;99.90;;;;;;5092452;28;20381;-77
2020/12/12 00:32:01;;;;;;;16.30;7.70;;;4.90;99.90;;;;;;5092298;28;20385;-77
2020/12/12 00:34:28;;;;;;;18.67;9.45;;;4.80;99.90;;;;;;5092522;28;20069;-77
2020/12/12 00:36:54;;;;;;;18.63;9.18;;;4.90;99.90;;;;;;5093730;28;20465;-77
2020/12/12 00:39:21;;;;;;;19.58;8.75;;;4.90;99.90;;;;;;5093550;28;20024;-77
2020/12/12 00:41:47;;;;;;;20.42;9.27;;;4.90;99.90;;;;;;5092612;28;20024;-77
2020/12/12 00:44:14;;;;;;;15.30;7.60;;;4.90;99.90;;;;;;5092032;28;20430;-78
2020/12/12 00:46:40;;;;;;;14.80;7.68;;;4.90;99.90;;;;;;5094472;28;20032;-77
2020/12/12 00:49:07;;;;;;;17.52;8.32;;;4.90;99.90;;;;;;5096529;28;20031;-78
2020/12/12 00:51:33;;;;;;;16.48;8.13;;;4.90;99.90;;;;;;5096031;28;20024;-78
2020/12/12 00:53:59;;;;;;;20.15;8.27;;;4.90;99.90;;;;;;5096131;28;20016;-77
2020/12/12 00:56:25;;;;;;;16.50;8.32;;;4.90;99.90;;;;;;5095465;28;20572;-77
2020/12/12 00:58:50;;;;;;;19.58;9.15;;;4.90;99.90;;;;;;5096571;28;20389;-77
2020/12/12 01:01:16;;;;;;;18.70;7.93;;;4.90;99.90;;;;;;5095396;28;20067;-77
2020/12/12 01:03:42;;;;;;;17.48;8.60;;;4.90;99.90;;;;;;5096960;28;20028;-78
2020/12/12 01:06:15;;;;;;;17.50;7.88;;;4.90;99.90;;;;;;5095200;28;20052;-77
2020/12/12 01:08:42;;;;;;;16.60;7.47;;;4.90;99.90;;;;;;5095313;28;20443;-78
2020/12/12 01:11:09;;;;;;;14.18;7.57;;;4.90;99.90;;;;;;5097185;28;20115;-78
2020/12/12 01:13:35;;;;;;;18.58;7.97;;;4.90;99.90;;;;;;5096408;28;20081;-78
2020/12/12 01:16:12;;;;;;;16.30;7.50;;;4.90;99.90;;;;;;5097387;28;20480;-76
2020/12/12 01:18:38;;;;;;;16.95;7.82;;;5.00;99.90;;;;;;5097610;28;20112;-76
2020/12/12 01:21:05;;;;;;;17.08;8.68;;;5.00;99.90;;;;;;5095486;28;20503;-75
2020/12/12 01:23:31;;;;;;;14.55;7.72;;;5.00;99.90;;;;;;5095692;28;20020;-76
2020/12/12 01:25:57;;;;;;;17.15;8.50;;;5.00;99.90;;;;;;5096635;28;20031;-76
2020/12/12 01:28:22;;;;;;;17.67;8.65;;;5.00;99.90;;;;;;5094932;28;20118;-76
2020/12/12 01:30:50;;;;;;;17.77;7.13;;;5.00;99.90;;;;;;5096933;28;20099;-77
2020/12/12 01:33:16;;;;;;;18.33;8.35;;;5.00;99.90;;;;;;5096600;28;20024;-76
2020/12/12 01:35:42;;;;;;;16.88;8.43;;;5.00;99.90;;;;;;5096487;28;20031;-76
2020/12/12 01:38:09;;;;;;;18.92;8.65;;;5.00;99.90;;;;;;5096384;28;20028;-76
2020/12/12 01:40:35;;;;;;;17.83;8.82;;;5.00;99.90;;;;;;5096663;28;20101;-76
2020/12/12 01:43:01;;;;;;;19.85;8.52;;;5.10;99.90;;;;;;5095253;28;20031;-76
2020/12/12 01:45:26;;;;;;;18.77;8.27;;;5.10;99.90;;;;;;5096192;28;20531;-76
2020/12/12 01:47:52;;;;;;;16.55;8.25;;;5.10;99.90;;;;;;5095081;28;20028;-76
2020/12/12 01:50:17;;;;;;;19.65;9.32;;;5.00;99.90;;;;;;5094695;28;20016;-76
2020/12/12 01:52:50;;;;;;;18.65;9.02;;;5.00;99.90;;;;;;5096102;28;20027;-76
2020/12/12 01:55:17;;;;;;;17.13;8.52;;;5.00;99.90;;;;;;5094699;28;20028;-77
2020/12/12 01:57:46;;;;;;;18.70;8.77;;;5.00;99.90;;;;;;5095635;28;20050;-77
2020/12/12 02:00:12;;;;;;;17.58;8.57;;;5.10;99.90;;;;;;5094754;28;20123;-77
2020/12/12 02:02:38;;;;;;;16.17;7.95;;;5.10;99.90;;;;;;5094741;28;20052;-76
2020/12/12 02:05:04;;;;;;;14.48;7.40;;;5.10;99.90;;;;;;5094404;28;20079;-77
2020/12/12 02:07:30;;;;;;;16.17;7.78;;;5.00;99.90;;;;;;5095496;28;20064;-77
2020/12/12 02:09:55;;;;;;;14.57;7.68;;;5.10;99.90;;;;;;5095450;28;20033;-78
2020/12/12 02:12:21;;;;;;;17.13;7.93;;;5.10;99.90;;;;;;5095622;28;20434;-77
2020/12/12 02:14:47;;;;;;;19.50;7.60;;;5.10;99.90;;;;;;5095433;28;20026;-77
2020/12/12 02:17:12;;;;;;;15.82;7.50;;;5.10;99.90;;;;;;5094229;28;20020;-76
2020/12/12 02:19:38;;;;;;;17.42;8.40;;;5.10;99.90;;;;;;5095540;28;20016;-76
2020/12/12 02:22:08;;;;;;;16.75;8.68;;;5.10;99.90;;;;;;5094552;28;20125;-76
2020/12/12 02:24:34;;;;;;;21.02;8.45;;;5.10;99.90;;;;;;5094017;28;20105;-75
2020/12/12 02:27:06;;;;;;;18.27;8.20;;;5.10;99.90;;;;;;5095043;28;20469;-77
2020/12/12 02:29:46;;;;;;;17.42;8.23;;;5.00;99.90;;;;;;5095096;28;20024;-77
2020/12/12 02:32:11;;;;;;;15.88;7.75;;;5.00;99.90;;;;;;5095465;28;20020;-77
2020/12/12 02:34:37;;;;;;;18.17;8.23;;;5.10;99.90;;;;;;5095566;28;20492;-76
2020/12/12 02:37:03;;;;;;;15.98;7.70;;;5.10;99.90;;;;;;5093991;28;20388;-77
2020/12/12 02:39:28;;;;;;;18.42;8.25;;;5.10;99.90;;;;;;5095394;28;20111;-77
2020/12/12 02:41:54;;;;;;;17.83;8.18;;;5.10;99.90;;;;;;5094004;28;20030;-77
2020/12/12 02:44:20;;;;;;;17.42;8.30;;;5.10;99.90;;;;;;5093691;28;20020;-75
2020/12/12 02:46:45;;;;;;;17.30;7.82;;;5.10;99.90;;;;;;5094370;28;20384;-77
2020/12/12 02:49:11;;;;;;;15.27;7.45;;;5.10;99.90;;;;;;5094486;28;20012;-74
2020/12/12 02:51:40;;;;;;;18.85;7.93;;;5.10;99.90;;;;;;5094327;28;20017;-75
2020/12/12 02:54:06;;;;;;;18.58;8.57;;;5.10;99.90;;;;;;5094224;28;20469;-76
2020/12/12 02:56:32;;;;;;;16.80;8.57;;;5.10;99.90;;;;;;5094741;28;20160;-76
2020/12/12 02:58:57;;;;;;;14.30;7.22;;;5.10;99.90;;;;;;5094273;28;20133;-75
2020/12/12 03:01:24;;;;;;;15.85;7.53;;;5.10;99.90;;;;;;5092964;28;20105;-75
2020/12/12 03:03:49;;;;;;;18.42;7.65;;;5.20;99.90;;;;;;5094142;28;20024;-75
2020/12/12 03:06:15;;;;;;;14.43;7.88;;;5.20;99.90;;;;;;5092902;28;20499;-75
2020/12/12 03:08:40;;;;;;;16.35;7.68;;;5.20;99.90;;;;;;5092702;28;20123;-76
2020/12/12 03:11:06;;;;;;;16.17;7.57;;;5.20;99.90;;;;;;5093776;28;20440;-74
2020/12/12 03:13:31;;;;;;;16.05;8.27;;;5.20;99.90;;;;;;5092931;28;20025;-75
2020/12/12 03:15:57;;;;;;;14.73;7.40;;;5.20;99.90;;;;;;5092393;28;20526;-76
2020/12/12 03:18:22;;;;;;;16.15;7.68;;;5.20;99.90;;;;;;5092686;28;20044;-76
2020/12/12 03:20:48;;;;;;;14.50;8.27;;;5.20;99.90;;;;;;5092576;28;20130;-75
2020/12/12 03:23:13;;;;;;;17.13;7.85;;;5.20;99.90;;;;;;5093943;28;20026;-75
2020/12/12 03:25:40;;;;;;;16.80;7.38;;;5.20;99.90;;;;;;5093790;28;20044;-75
2020/12/12 03:28:06;;;;;;;12.60;6.68;;;5.20;99.90;;;;;;5093800;28;20110;-75
2020/12/12 03:30:32;;;;;;;17.00;8.18;;;5.20;99.90;;;;;;5093843;28;20095;-76
2020/12/12 03:32:58;;;;;;;13.57;6.43;;;5.20;99.90;;;;;;5093848;28;20021;-76
2020/12/12 03:35:24;;;;;;;15.82;7.65;;;5.20;99.90;;;;;;5092490;28;20052;-76
2020/12/12 03:37:49;;;;;;;15.10;7.18;;;5.20;99.90;;;;;;5094344;28;20392;-78
2020/12/12 03:40:15;;;;;;;14.68;6.95;;;5.30;99.90;;;;;;5094333;28;20027;-78
2020/12/12 03:42:41;;;;;;;13.57;6.90;;;5.20;99.90;;;;;;5092532;28;20387;-77
2020/12/12 03:45:06;;;;;;;13.50;6.78;;;5.20;99.90;;;;;;5092509;28;20049;-78
2020/12/12 03:47:32;;;;;;;13.32;6.20;;;5.20;99.90;;;;;;5092893;28;20031;-78
2020/12/12 03:49:57;;;;;;;14.75;7.28;;;5.20;99.90;;;;;;5097082;28;20073;-78
2020/12/12 03:52:23;;;;;;;15.93;7.70;;;5.30;99.90;;;;;;5096856;28;20020;-78
2020/12/12 03:54:48;;;;;;;14.18;6.60;;;5.30;99.90;;;;;;5096230;28;20020;-77
2020/12/12 03:57:14;;;;;;;15.20;7.15;;;5.30;99.90;;;;;;5092276;28;20021;-76
2020/12/12 03:59:39;;;;;;;16.08;7.18;;;5.20;99.90;;;;;;5092045;28;20066;-75
2020/12/12 04:02:05;;;;;;;13.85;6.05;;;5.30;99.90;;;;;;5093370;28;20020;-76
2020/12/12 04:04:30;;;;;;;13.23;6.50;;;5.20;99.90;;;;;;5093656;28;20055;-76
2020/12/12 04:06:56;;;;;;;14.82;7.47;;;5.30;99.90;;;;;;5091875;28;20059;-76
2020/12/12 04:09:21;;;;;;;13.52;6.53;;;5.30;99.90;;;;;;5093383;28;20048;-77
2020/12/12 04:11:47;;;;;;;14.25;6.82;;;5.30;99.90;;;;;;5093412;28;20029;-76
2020/12/12 04:14:13;;;;;;;15.15;6.55;;;5.30;99.90;;;;;;5091885;28;20477;-76
2020/12/12 04:16:38;;;;;;;13.07;6.25;;;5.30;99.90;;;;;;5093717;28;20028;-77
2020/12/12 04:19:04;;;;;;;12.45;5.90;;;5.30;99.90;;;;;;5091788;28;20082;-77
2020/12/12 04:21:29;;;;;;;12.50;6.35;;;5.30;99.90;;;;;;5095552;28;20136;-78
2020/12/12 04:23:55;;;;;;;11.50;5.72;;;5.30;99.90;;;;;;5097157;28;20028;-77
2020/12/12 04:26:21;;;;;;;12.55;6.63;;;5.30;99.90;;;;;;5097498;28;20024;-76
2020/12/12 04:28:46;;;;;;;12.15;5.88;;;5.30;99.90;;;;;;5101927;28;20028;-78
2020/12/12 04:31:12;;;;;;;12.35;5.78;;;5.30;99.90;;;;;;5095969;28;20016;-75
2020/12/12 04:33:37;;;;;;;11.93;5.95;;;5.30;99.90;;;;;;5095575;28;20016;-76
2020/12/12 04:36:03;;;;;;;10.23;5.50;;;5.40;99.90;;;;;;5095611;28;20016;-76
2020/12/12 04:38:31;;;;;;;11.27;6.22;;;5.30;99.90;;;;;;5095616;28;20020;-79
2020/12/12 04:40:58;;;;;;;11.75;6.25;;;5.30;99.90;;;;;;5095860;28;20484;-77
2020/12/12 04:43:25;;;;;;;11.93;5.70;;;5.30;99.90;;;;;;5095945;28;20016;-77
2020/12/12 04:45:51;;;;;;;11.30;5.95;;;5.30;99.90;;;;;;5095849;28;20028;-78
2020/12/12 04:48:17;;;;;;;11.90;6.13;;;5.40;99.90;;;;;;5097475;28;20028;-78
2020/12/12 04:50:43;;;;;;;11.23;5.82;;;5.40;99.90;;;;;;5097497;28;20032;-78
2020/12/12 04:53:14;;;;;;;13.07;5.80;;;5.40;99.90;;;;;;5097078;28;20024;-77
2020/12/12 04:55:46;;;;;;;12.15;6.68;;;5.40;99.90;;;;;;5095659;28;20024;-77
2020/12/12 04:58:17;;;;;;;12.68;6.40;;;5.40;99.90;;;;;;5095690;28;20028;-78
2020/12/12 05:00:45;;;;;;;13.32;5.75;;;5.40;99.90;;;;;;5096567;28;20081;-78
2020/12/12 05:03:13;;;;;;;12.32;6.05;;;5.40;99.90;;;;;;5095021;28;20038;-78
2020/12/12 05:05:38;;;;;;;12.23;5.53;;;5.40;99.90;;;;;;5095940;28;20388;-77
2020/12/12 05:08:04;;;;;;;15.35;8.02;;;5.40;99.90;;;;;;5096211;28;20024;-77
2020/12/12 05:10:45;;;;;;;11.23;6.07;;;5.40;99.90;;;;;;5095225;28;20061;-77
2020/12/12 05:13:15;;;;;;;15.20;6.75;;;5.40;99.90;;;;;;5096641;28;20024;-78
2020/12/12 05:15:41;;;;;;;13.77;6.65;;;5.40;99.90;;;;;;5094834;28;20384;-78
2020/12/12 05:18:07;;;;;;;14.90;6.65;;;5.40;99.90;;;;;;5096101;28;20507;-78
2020/12/12 05:20:33;;;;;;;20.15;6.95;;;5.40;99.90;;;;;;5096192;28;20024;-79
2020/12/12 05:22:59;;;;;;;13.35;6.85;;;5.40;99.90;;;;;;5095874;28;20031;-78
2020/12/12 05:25:25;;;;;;;17.40;7.35;;;5.40;99.90;;;;;;5095826;28;20028;-78
2020/12/12 05:27:52;;;;;;;21.98;7.85;;;5.40;99.90;;;;;;5094315;28;20419;-78
2020/12/12 05:30:19;;;;;;;15.07;6.60;;;5.40;99.90;;;;;;5095819;28;20016;-77
2020/12/12 05:32:47;;;;;;;21.17;7.55;;;5.40;99.90;;;;;;5095504;28;20523;-77
2020/12/12 05:35:13;;;;;;;18.13;6.88;;;5.50;99.90;;;;;;5096437;28;20040;-77
2020/12/12 05:37:39;;;;;;;17.88;7.63;;;5.50;99.90;;;;;;5095688;28;20039;-77
2020/12/12 05:40:05;;;;;;;16.42;7.20;;;5.50;99.90;;;;;;5095745;28;20522;-77
2020/12/12 05:42:30;;;;;;;18.60;7.05;;;5.50;99.90;;;;;;5096040;28;20085;-77
2020/12/12 05:44:57;;;;;;;18.35;8.30;;;5.40;99.90;;;;;;5096249;28;20028;-78
2020/12/12 05:47:23;;;;;;;18.27;7.15;;;5.40;99.90;;;;;;5096073;28;20028;-78
2020/12/12 05:49:49;;;;;;;19.48;7.13;;;5.80;99.90;;;;;;5095661;28;20024;-78
2020/12/12 05:52:17;;;;;;;19.23;7.47;;;5.40;99.90;;;;;;5096906;28;20104;-79
2020/12/12 05:54:42;;;;;;;18.55;6.90;;;5.40;99.90;;;;;;5097285;28;20027;-77
2020/12/12 05:57:10;;;;;;;20.23;7.95;;;5.40;99.90;;;;;;5094403;28;20028;-78
2020/12/12 05:59:36;;;;;;;18.23;8.07;;;5.40;99.90;;;;;;5096441;28;20031;-77
2020/12/12 06:02:05;;;;;;;24.25;8.95;;;5.40;99.90;;;;;;5094927;28;20479;-77
2020/12/12 06:04:35;;;;;;;;;;;5.50;99.90;;;;;;5095695;28;20060;-77
2020/12/12 06:07:05;;;;;;;20.00;7.28;;;5.50;99.90;;;;;;5093624;28;19999;-77
2020/12/12 06:09:36;;;;;;;18.55;7.72;;;5.50;99.90;;;;;;5094969;28;20034;-77
2020/12/12 06:12:03;;;;;;;19.98;8.93;;;5.50;99.90;;;;;;5093743;28;20021;-77
2020/12/12 06:14:35;;;;;;;25.70;8.32;;;5.50;99.90;;;;;;5093805;28;20016;-79
2020/12/12 06:17:06;;;;;;;24.05;8.52;;;5.50;99.90;;;;;;5096197;28;20085;-78
2020/12/12 06:19:36;;;;;;;19.23;7.80;;;5.50;99.90;;;;;;5095963;28;20023;-79
2020/12/12 06:22:02;;;;;;;20.27;8.05;;;5.50;99.90;;;;;;5097613;28;20024;-79
2020/12/12 06:24:32;;;;;;;23.50;8.55;;;5.50;99.90;;;;;;5096034;28;20020;-78
2020/12/12 06:27:05;;;;;;;30.77;8.35;;;5.50;99.90;;;;;;5095703;28;20027;-78
2020/12/12 06:29:41;;;;;;;18.98;7.28;;;5.50;99.90;;;;;;5096582;28;20065;-79
2020/12/12 06:32:17;;;;;;;20.77;8.35;;;5.50;99.90;;;;;;5097863;28;20016;-79
2020/12/12 06:34:48;;;;;;;29.08;8.20;;;5.50;99.90;;;;;;5095731;28;20100;-79
2020/12/12 06:37:29;;;;;;;27.23;8.55;;;5.50;99.90;;;;;;5095482;28;20392;-78
2020/12/12 06:39:55;;;;;;;25.77;8.18;;;5.50;99.90;;;;;;5093389;28;20024;-79
2020/12/12 06:42:29;;;;;;;31.98;8.98;;;5.50;99.90;;;;;;5095297;28;20028;-78
2020/12/12 06:44:55;;;;;;;24.70;8.10;;;5.50;99.90;;;;;;5099554;28;20024;-78
2020/12/12 06:47:37;;;;;;;28.67;8.65;;;5.50;99.90;;;;;;5099603;28;20032;-78
2020/12/12 06:50:13;;;;;;;24.45;8.23;;;5.50;99.90;;;;;;5100212;28;20416;-79
2020/12/12 06:52:41;;;;;;;27.45;7.72;;;5.50;99.90;;;;;;5098925;28;20020;-79
2020/12/12 06:55:11;;;;;;;19.90;8.10;;;5.50;99.90;;;;;;5095249;28;20136;-78
2020/12/12 06:57:44;;;;;;;29.98;8.40;;;5.50;99.90;;;;;;5095051;28;20027;-78
2020/12/12 07:00:25;;;;;;;21.15;8.18;;;5.50;99.90;;;;;;5095455;28;20020;-79
2020/12/12 07:03:01;;;;;;;36.83;8.65;;;5.60;99.90;;;;;;5095649;28;20485;-78
2020/12/12 07:05:29;;;;;;;27.48;8.82;;;5.60;99.90;;;;;;5098773;28;20028;-79
2020/12/12 07:08:03;;;;;;;27.63;8.27;;;5.60;99.90;;;;;;5098634;28;20434;-78
2020/12/12 07:10:30;;;;;;;33.08;7.85;;;5.60;99.90;;;;;;5098249;28;20027;-79
2020/12/12 07:12:58;;;;;;;30.02;8.45;;;5.60;99.90;;;;;;5110538;22;20523;-78
2020/12/12 07:15:27;;;;;;;23.30;8.98;;;5.60;99.90;;;;;;5087748;28;20016;-77
2020/12/12 07:17:53;;;;;;;32.85;8.43;;;5.60;99.90;;;;;;5094332;28;20464;-77
2020/12/12 07:20:18;;;;;;;35.28;8.43;;;5.60;99.90;;;;;;5092649;28;20058;-77
2020/12/12 07:22:47;;;;;;;30.33;8.07;;;5.60;99.90;;;;;;5092764;28;20032;-77
2020/12/12 07:25:13;;;;;;;23.63;8.48;;;5.60;99.90;;;;;;5095082;28;20050;-77
2020/12/12 07:27:38;;;;;;;21.08;8.40;;;5.60;99.90;;;;;;5093925;28;20016;-78
2020/12/12 07:30:04;;;;;;;33.65;9.23;;;5.60;99.90;;;;;;5095775;28;20020;-77
2020/12/12 07:32:30;;;;;;;25.60;8.32;;;5.60;99.90;;;;;;5090137;28;20025;-78
2020/12/12 07:35:02;;;;;;;32.42;9.02;;;5.60;99.90;;;;;;5073652;28;20056;-77
2020/12/12 07:37:27;;;;;;;25.60;8.23;;;5.60;99.90;;;;;;5074633;28;20469;-77
2020/12/12 07:39:53;;;;;;;25.42;8.65;;;5.60;99.90;;;;;;5075649;28;20027;-77
2020/12/12 07:42:22;;;;;;;30.25;7.93;;;5.60;99.90;;;;;;5074648;28;20033;-77
2020/12/12 07:44:56;;;;;;;28.92;9.40;;;5.60;99.90;;;;;;5073313;28;20074;-76
2020/12/12 07:47:21;;;;;;;29.27;9.02;;;5.60;99.90;;;;;;5073224;28;20542;-77
2020/12/12 07:49:47;;;;;;;30.10;9.55;;;5.70;99.90;;;;;;5072034;28;20020;-76
2020/12/12 07:52:13;;;;;;;22.15;8.43;;;5.60;99.90;;;;;;5073341;28;20092;-76
2020/12/12 07:54:44;;;;;;;26.15;8.82;;;5.60;99.90;;;;;;5072021;28;20023;-75
2020/12/12 07:57:14;;;;;;;26.92;9.38;;;5.70;99.90;;;;;;5075679;28;20021;-77
2020/12/12 07:59:43;;;;;;;29.40;8.75;;;5.70;99.90;;;;;;5075944;28;20025;-77
2020/12/12 08:02:09;;;;;;;;;;;5.70;99.90;;;;;;5076377;28;20025;-76
2020/12/12 08:04:35;;;;;;;25.58;7.95;;;5.70;99.90;;;;;;5076031;28;19996;-77
2020/12/12 08:07:21;;;;;;;32.60;9.27;;;5.80;99.90;;;;;;5077191;28;20024;-76
2020/12/12 08:09:48;;;;;;;23.73;9.05;;;5.80;99.90;;;;;;5077674;28;20017;-77
2020/12/12 08:12:29;;;;;;;24.05;8.68;;;5.80;99.90;;;;;;5077149;28;20077;-77
2020/12/12 08:14:56;;;;;;;32.13;9.50;;;5.80;99.90;;;;;;5077192;28;20469;-77
2020/12/12 08:17:27;;;;;;;31.92;8.52;;;5.80;99.90;;;;;;5075690;28;20017;-77
2020/12/12 08:19:52;;;;;;;28.17;8.75;;;5.80;99.90;;;;;;5076903;28;20478;-77
2020/12/12 08:22:20;;;;;;;42.25;11.40;;;5.80;99.90;;;;;;5077350;28;20150;-77
2020/12/12 08:24:48;;;;;;;28.52;9.05;;;5.80;99.90;;;;;;5077206;28;20021;-77
2020/12/12 08:27:35;;;;;;;26.48;8.93;;;5.80;99.90;;;;;;5076634;28;20021;-77
2020/12/12 08:30:03;;;;;;;34.30;9.40;;;5.90;99.90;;;;;;5076279;28;20112;-77
2020/12/12 08:32:40;;;;;;;27.90;10.10;;;5.90;99.90;;;;;;5076713;28;20504;-77
2020/12/12 08:35:14;;;;;;;27.42;9.15;;;5.90;99.90;;;;;;5076797;28;20055;-76
2020/12/12 08:37:49;;;;;;;36.58;10.65;;;5.90;99.90;;;;;;5076260;28;20028;-76
2020/12/12 08:40:15;;;;;;;31.90;10.05;;;5.90;99.90;;;;;;5076416;28;20024;-75
2020/12/12 08:42:40;;;;;;;46.42;9.77;;;6.00;99.90;;;;;;5075057;28;20546;-76
2020/12/12 08:45:36;;;;;;;40.40;10.88;;;6.00;99.90;;;;;;5075027;28;20119;-76
2020/12/12 08:48:11;;;;;;;34.95;10.15;;;6.00;99.90;;;;;;5073903;28;20033;-77
2020/12/12 08:50:53;;;;;;;36.80;9.43;;;6.00;99.90;;;;;;5076260;28;20020;-77
2020/12/12 08:53:35;;;;;;;30.95;11.57;;;6.00;99.90;;;;;;5074791;28;20024;-76
2020/12/12 08:56:27;;;;;;;37.20;9.90;;;6.10;99.90;;;;;;5074803;28;20017;-76
2020/12/12 08:58:58;;;;;;;28.48;9.27;;;6.10;99.90;;;;;;5073025;28;20392;-75
2020/12/12 09:01:36;;;;;;;35.85;11.73;;;6.10;99.90;;;;;;5074647;28;20020;-76
2020/12/12 09:04:19;;;;;;;38.07;9.87;;;6.10;99.90;;;;;;5076005;28;20017;-76
2020/12/12 09:06:49;;;;;;;45.00;11.00;;;6.20;99.90;;;;;;5073951;28;20029;-76
2020/12/12 09:09:19;;;;;;;40.50;12.18;;;6.30;99.90;;;;;;5074416;28;20020;-75
2020/12/12 09:12:08;;;;;;;30.92;9.60;;;6.20;99.90;;;;;;5075765;28;20017;-77
2020/12/12 09:14:38;;;;;;;35.92;10.52;;;6.30;99.90;;;;;;5076152;28;20074;-76
2020/12/12 09:17:08;;;;;;;35.55;10.35;;;6.30;99.90;;;;;;5074762;28;20017;-78
2020/12/12 09:19:37;;;;;;;42.60;10.02;;;6.30;99.90;;;;;;5077101;28;20489;-78
2020/12/12 09:22:07;;;;;;;32.40;10.70;;;6.40;99.90;;;;;;5075582;28;20021;-77
2020/12/12 09:24:33;;;;;;;51.97;11.45;;;6.40;99.90;;;;;;5074483;28;20020;-77
2020/12/12 09:26:59;;;;;;;50.40;12.07;;;6.50;99.90;;;;;;5076161;28;20111;-78
2020/12/12 09:29:26;;;;;;;58.15;12.40;;;6.50;99.90;;;;;;5075922;28;20055;-77
2020/12/12 09:31:54;;;;;;;36.80;10.77;;;6.50;99.90;;;;;;5075392;28;20017;-76
2020/12/12 09:34:23;;;;;;;41.22;11.85;;;6.50;99.90;;;;;;5075851;28;20024;-77
2020/12/12 09:36:52;;;;;;;;;;;6.50;99.90;;;;;;5076792;28;20068;-78
2020/12/12 09:39:18;;;;;;;48.35;10.10;;;6.60;99.90;;;;;;5077095;28;19940;-77
2020/12/12 09:41:46;;;;;;;37.47;9.82;;;6.70;99.90;;;;;;5091039;22;20504;-77
2020/12/12 09:44:11;;;;;;;39.28;10.88;;;7.00;99.90;;;;;;5096437;28;20036;-77
2020/12/12 09:46:37;;;;;;;44.67;11.85;;;6.10;99.90;;;;;;5095746;28;20031;-76
2020/12/12 09:49:03;;;;;;;50.78;11.90;;;6.70;99.90;;;;;;5096096;28;20426;-77
2020/12/12 09:51:28;;;;;;;50.45;12.40;;;6.80;99.90;;;;;;5096077;28;20435;-76
2020/12/12 09:53:54;;;;;;;91.20;12.70;;;6.80;99.90;;;;;;5094131;28;20012;-71
2020/12/12 09:56:20;;;;;;;59.42;13.73;;;6.90;99.90;;;;;;5098234;28;20483;-76
2020/12/12 09:58:46;;;;;;;51.88;12.82;;;6.90;99.90;;;;;;5097681;28;20027;-80
2020/12/12 10:01:12;;;;;;;63.50;12.20;;;6.90;99.90;;;;;;5096617;28;20016;-75
2020/12/12 10:03:38;;;;;;;67.75;13.13;;;6.90;99.90;;;;;;5096627;28;20349;-80
2020/12/12 10:06:07;;;;;;;63.05;12.77;;;7.00;99.90;;;;;;5098824;28;20072;-78
2020/12/12 10:08:32;;;;;;;79.88;12.77;;;7.00;99.90;;;;;;5094323;28;20388;-78
2020/12/12 10:10:58;;;;;;;58.03;13.05;;;7.00;99.90;;;;;;5094381;28;20027;-78
2020/12/12 10:13:23;;;;;;;48.75;12.38;;;7.10;99.90;;;;;;5095244;28;20115;-78
2020/12/12 10:15:49;;;;;;;56.47;12.30;;;7.20;99.90;;;;;;5093686;28;20061;-79
2020/12/12 10:18:15;;;;;;;63.78;13.05;;;7.20;99.90;;;;;;5095344;28;20024;-78
2020/12/12 10:20:40;;;;;;;55.90;15.30;;;7.20;99.90;;;;;;5100299;28;20445;-77
2020/12/12 10:23:06;;;;;;;55.55;12.48;;;7.20;99.90;;;;;;5096162;28;20129;-77
2020/12/12 10:25:32;;;;;;;59.00;14.73;;;7.30;99.90;;;;;;5095164;28;20069;-77
2020/12/12 10:27:58;;;;;;;52.90;14.18;;;7.40;99.90;;;;;;5094691;28;20024;-78
2020/12/12 10:30:23;;;;;;;58.55;13.32;;;7.40;99.90;;;;;;5098191;28;20026;-80
2020/12/12 10:32:49;;;;;;;56.95;14.02;;;7.40;99.90;;;;;;5100002;28;20016;-78
2020/12/12 10:35:24;;;;;;;47.42;13.27;;;7.50;99.90;;;;;;5095562;28;20035;-77
2020/12/12 10:37:50;;;;;;;64.13;14.48;;;7.50;99.90;;;;;;5101111;28;20569;-79
2020/12/12 10:40:21;;;;;;;57.15;12.77;;;7.60;99.90;;;;;;5096936;28;20051;-78
2020/12/12 10:42:47;;;;;;;56.45;14.18;;;7.50;99.90;;;;;;5099464;28;20040;-77
2020/12/12 10:45:12;;;;;;;52.78;11.70;;;7.40;99.90;;;;;;5094524;28;20073;-77
2020/12/12 10:47:38;;;;;;;69.10;14.82;;;7.60;99.90;;;;;;5096586;28;20031;-77
2020/12/12 10:50:06;;;;;;;43.70;13.02;;;7.60;99.90;;;;;;5094207;28;20032;-77
2020/12/12 10:52:32;;;;;;;48.75;12.50;;;7.60;99.90;;;;;;5094230;28;20027;-77
2020/12/12 10:54:58;;;;;;;43.47;12.35;;;7.60;99.90;;;;;;5092537;28;20028;-78
2020/12/12 10:57:23;;;;;;;36.65;12.20;;;7.60;99.90;;;;;;5092853;28;20030;-77
2020/12/12 10:59:49;;;;;;;47.67;14.32;;;7.60;99.90;;;;;;5094042;28;20069;-77
2020/12/12 11:02:15;;;;;;;42.80;11.85;;;7.60;99.90;;;;;;5093068;28;20453;-78
2020/12/12 11:04:42;;;;;;;40.85;12.63;;;7.70;99.90;;;;;;5094522;28;20024;-78
2020/12/12 11:07:08;;;;;;;41.40;12.18;;;7.70;99.90;;;;;;5094373;28;20132;-78
2020/12/12 11:09:34;;;;;;;39.28;13.00;;;7.80;99.90;;;;;;5093780;28;20038;-77
2020/12/12 11:12:00;;;;;;;31.30;11.05;;;7.90;99.90;;;;;;5094163;28;20469;-78
2020/12/12 11:14:28;;;;;;;39.63;11.43;;;7.90;99.90;;;;;;5092567;28;20062;-78
2020/12/12 11:16:56;;;;;;;43.10;11.75;;;8.00;99.90;;;;;;5093967;28;20024;-78
2020/12/12 11:19:23;;;;;;;33.92;11.80;;;7.90;99.90;;;;;;5094059;28;20116;-78
2020/12/12 11:21:51;;;;;;;44.42;13.40;;;8.00;99.90;;;;;;5094378;28;20028;-78
2020/12/12 11:24:17;;;;;;;34.13;11.60;;;8.00;99.90;;;;;;5093305;28;20503;-79
2020/12/12 11:26:44;;;;;;;38.05;11.73;;;8.00;99.90;;;;;;5093013;28;20115;-78
2020/12/12 11:29:09;;;;;;;37.70;12.05;;;8.10;99.90;;;;;;5095094;28;20381;-78
2020/12/12 11:31:37;;;;;;;31.88;12.23;;;8.10;99.90;;;;;;5094722;28;20032;-79
2020/12/12 11:34:24;;;;;;;33.78;11.40;;;8.10;99.90;;;;;;5093961;28;20095;-78
2020/12/12 11:43:11;;;;;;;33.88;12.98;;;8.10;99.90;;;;;;5095189;28;20036;-79
2020/12/12 11:47:25;;;;;;;44.88;13.30;;;8.20;99.90;;;;;;5094083;28;20032;-77
2020/12/12 11:49:51;;;;;;;39.13;11.50;;;8.20;99.90;;;;;;5093944;28;20060;-77
2020/12/12 11:52:17;;;;;;;36.45;12.00;;;8.20;99.90;;;;;;5093397;28;20058;-79
2020/12/12 11:54:43;;;;;;;40.53;11.43;;;8.20;99.90;;;;;;5093315;28;20075;-79
2020/12/12 11:57:09;;;;;;;42.95;13.57;;;8.30;99.90;;;;;;5093722;28;20016;-77
2020/12/12 11:59:34;;;;;;;40.97;12.90;;;8.30;99.90;;;;;;5093444;28;20035;-76
2020/12/12 12:02:00;;;;;;;42.90;13.35;;;8.30;99.90;;;;;;5091957;28;20115;-77
2020/12/12 12:04:25;;;;;;;47.30;13.40;;;8.40;99.90;;;;;;5094059;28;20388;-80
2020/12/12 12:06:51;;;;;;;43.80;13.82;;;8.40;99.90;;;;;;5092627;28;20450;-76
2020/12/12 12:09:26;;;;;;;50.40;13.73;;;8.30;99.90;;;;;;5093173;28;20095;-76
2020/12/12 12:11:52;;;;;;;47.80;12.80;;;8.30;99.90;;;;;;5091914;28;20107;-77
2020/12/12 12:14:17;;;;;;;54.47;16.55;;;8.30;99.90;;;;;;5093139;28;20051;-76
2020/12/12 12:16:43;;;;;;;53.83;15.30;;;8.40;99.90;;;;;;5091919;28;20055;-77
2020/12/12 12:19:13;;;;;;;56.88;16.63;;;8.40;99.90;;;;;;5091658;28;20032;-76
2020/12/12 12:21:41;;;;;;;57.10;15.57;;;8.40;99.90;;;;;;5093101;28;20024;-76
2020/12/12 12:24:09;;;;;;;55.00;16.10;;;8.40;99.90;;;;;;5093074;28;20028;-76
2020/12/12 12:26:36;;;;;;;73.78;15.93;;;8.50;99.90;;;;;;5093011;28;20054;-76
2020/12/12 12:29:06;;;;;;;59.85;16.90;;;8.50;99.90;;;;;;5092958;28;20097;-77
2020/12/12 12:31:33;;;;;;;65.32;16.45;;;8.50;99.90;;;;;;5093951;28;20016;-77
2020/12/12 12:33:58;;;;;;;58.53;16.60;;;8.60;99.90;;;;;;5091759;28;20078;-76
2020/12/12 12:36:26;;;;;;;59.08;15.65;;;8.60;99.90;;;;;;5093458;28;20032;-76
2020/12/12 12:38:52;;;;;;;60.83;14.95;;;8.70;99.90;;;;;;5093335;28;20052;-76
2020/12/12 12:41:19;;;;;;;64.47;17.48;;;8.70;99.90;;;;;;5092751;28;20481;-76
2020/12/12 12:43:45;;;;;;;64.10;16.98;;;8.70;99.90;;;;;;5095580;28;20039;-76
2020/12/12 12:46:11;;;;;;;70.05;18.15;;;8.70;99.90;;;;;;5096536;28;20054;-76
2020/12/12 12:48:37;;;;;;;48.10;15.25;;;8.80;99.90;;;;;;5095161;28;20045;-76
2020/12/12 12:51:05;;;;;;;70.40;17.20;;;8.80;99.90;;;;;;5094921;28;20031;-76
2020/12/12 12:53:31;;;;;;;64.90;16.65;;;8.80;99.90;;;;;;5096535;28;20032;-76
2020/12/12 12:55:57;;;;;;;70.70;17.88;;;8.80;99.90;;;;;;5095175;28;20027;-76